sensor_id;sensor_type;location;lat;lon;timestamp;P1;durP1;ratioP1;P2;durP2;ratioP2
35550;SDS011;21655;46.056;13.616;2022-10-16T00:00:36;90.22;;;49.80;;
35550;SDS011;21655;46.056;13.616;2022-10-16T00:03:02;83.88;;;48.95;;
35550;SDS011;21655;46.056;13.616;2022-10-16T00:05:30;83.72;;;48.58;;
35550;SDS011;21655;46.056;13.616;2022-10-16T00:07:56;87.50;;;47.60;;
35550;SDS011;21655;46.056;13.616;2022-10-16T00:10:21;85.72;;;47.85;;
35550;SDS011;21655;46.056;13.616;2022-10-16T00:12:47;79.63;;;45.33;;
35550;SDS011;21655;46.056;13.616;2022-10-16T00:15:13;80.05;;;47.90;;
35550;SDS011;21655;46.056;13.616;2022-10-16T00:17:38;88.78;;;46.85;;
35550;SDS011;21655;46.056;13.616;2022-10-16T00:20:04;94.78;;;47.28;;
35550;SDS011;21655;46.056;13.616;2022-10-16T00:22:30;77.50;;;45.30;;
35550;SDS011;21655;46.056;13.616;2022-10-16T00:24:56;84.38;;;47.75;;
35550;SDS011;21655;46.056;13.616;2022-10-16T00:27:21;82.93;;;47.20;;
35550;SDS011;21655;46.056;13.616;2022-10-16T00:29:50;84.15;;;46.92;;
35550;SDS011;21655;46.056;13.616;2022-10-16T00:32:17;86.55;;;47.38;;
35550;SDS011;21655;46.056;13.616;2022-10-16T00:34:44;77.10;;;43.83;;
35550;SDS011;21655;46.056;13.616;2022-10-16T00:37:09;76.35;;;44.17;;
35550;SDS011;21655;46.056;13.616;2022-10-16T00:39:35;90.18;;;47.58;;
35550;SDS011;21655;46.056;13.616;2022-10-16T00:42:00;81.75;;;45.33;;
35550;SDS011;21655;46.056;13.616;2022-10-16T00:47:15;79.47;;;45.72;;
35550;SDS011;21655;46.056;13.616;2022-10-16T00:49:46;83.15;;;46.20;;
35550;SDS011;21655;46.056;13.616;2022-10-16T00:52:15;85.65;;;47.08;;
35550;SDS011;21655;46.056;13.616;2022-10-16T00:54:40;91.28;;;50.28;;
35550;SDS011;21655;46.056;13.616;2022-10-16T00:57:06;89.50;;;51.40;;
35550;SDS011;21655;46.056;13.616;2022-10-16T00:59:33;83.90;;;47.50;;
35550;SDS011;21655;46.056;13.616;2022-10-16T01:02:00;82.43;;;46.13;;
35550;SDS011;21655;46.056;13.616;2022-10-16T01:04:26;86.38;;;46.78;;
35550;SDS011;21655;46.056;13.616;2022-10-16T01:14:47;88.30;;;48.38;;
35550;SDS011;21655;46.056;13.616;2022-10-16T01:17:23;84.45;;;47.53;;
35550;SDS011;21655;46.056;13.616;2022-10-16T01:20:02;84.55;;;47.17;;
35550;SDS011;21655;46.056;13.616;2022-10-16T01:22:33;90.40;;;47.80;;
35550;SDS011;21655;46.056;13.616;2022-10-16T01:25:05;87.10;;;50.00;;
35550;SDS011;21655;46.056;13.616;2022-10-16T01:27:36;92.88;;;49.53;;
35550;SDS011;21655;46.056;13.616;2022-10-16T01:30:10;97.35;;;48.08;;
35550;SDS011;21655;46.056;13.616;2022-10-16T01:37:46;88.85;;;49.42;;
35550;SDS011;21655;46.056;13.616;2022-10-16T01:40:32;87.35;;;46.78;;
35550;SDS011;21655;46.056;13.616;2022-10-16T01:46:01;84.50;;;47.53;;
35550;SDS011;21655;46.056;13.616;2022-10-16T01:48:27;89.72;;;49.72;;
35550;SDS011;21655;46.056;13.616;2022-10-16T01:50:57;87.15;;;48.60;;
35550;SDS011;21655;46.056;13.616;2022-10-16T01:53:27;91.80;;;48.10;;
35550;SDS011;21655;46.056;13.616;2022-10-16T01:55:54;99.88;;;52.88;;
35550;SDS011;21655;46.056;13.616;2022-10-16T01:58:21;93.80;;;50.85;;
35550;SDS011;21655;46.056;13.616;2022-10-16T02:00:48;87.75;;;47.80;;
35550;SDS011;21655;46.056;13.616;2022-10-16T02:03:14;86.10;;;47.35;;
35550;SDS011;21655;46.056;13.616;2022-10-16T02:05:52;89.47;;;46.63;;
35550;SDS011;21655;46.056;13.616;2022-10-16T02:08:23;83.85;;;46.80;;
35550;SDS011;21655;46.056;13.616;2022-10-16T02:10:50;83.03;;;46.08;;
35550;SDS011;21655;46.056;13.616;2022-10-16T02:13:22;87.53;;;46.50;;
35550;SDS011;21655;46.056;13.616;2022-10-16T02:15:52;81.72;;;44.72;;
35550;SDS011;21655;46.056;13.616;2022-10-16T02:18:18;91.82;;;46.92;;
35550;SDS011;21655;46.056;13.616;2022-10-16T02:20:47;83.63;;;47.05;;
35550;SDS011;21655;46.056;13.616;2022-10-16T02:23:20;75.90;;;44.30;;
35550;SDS011;21655;46.056;13.616;2022-10-16T02:25:56;83.97;;;47.25;;
35550;SDS011;21655;46.056;13.616;2022-10-16T02:28:25;81.47;;;46.88;;
35550;SDS011;21655;46.056;13.616;2022-10-16T02:30:58;87.28;;;47.33;;
35550;SDS011;21655;46.056;13.616;2022-10-16T02:33:26;82.88;;;44.95;;
35550;SDS011;21655;46.056;13.616;2022-10-16T02:35:54;80.03;;;44.70;;
35550;SDS011;21655;46.056;13.616;2022-10-16T02:38:21;81.78;;;45.65;;
35550;SDS011;21655;46.056;13.616;2022-10-16T02:40:49;82.13;;;46.30;;
35550;SDS011;21655;46.056;13.616;2022-10-16T02:43:15;86.40;;;46.63;;
35550;SDS011;21655;46.056;13.616;2022-10-16T02:45:41;82.82;;;45.38;;
35550;SDS011;21655;46.056;13.616;2022-10-16T02:48:06;76.53;;;44.17;;
35550;SDS011;21655;46.056;13.616;2022-10-16T02:50:32;80.72;;;44.20;;
35550;SDS011;21655;46.056;13.616;2022-10-16T02:52:57;78.63;;;44.60;;
35550;SDS011;21655;46.056;13.616;2022-10-16T02:55:23;80.07;;;44.45;;
35550;SDS011;21655;46.056;13.616;2022-10-16T02:57:48;82.20;;;45.45;;
35550;SDS011;21655;46.056;13.616;2022-10-16T03:00:14;78.97;;;45.67;;
35550;SDS011;21655;46.056;13.616;2022-10-16T03:02:41;77.43;;;43.80;;
35550;SDS011;21655;46.056;13.616;2022-10-16T03:05:07;76.80;;;45.45;;
35550;SDS011;21655;46.056;13.616;2022-10-16T03:07:34;79.57;;;46.05;;
35550;SDS011;21655;46.056;13.616;2022-10-16T03:09:59;79.53;;;45.17;;
35550;SDS011;21655;46.056;13.616;2022-10-16T03:12:25;80.72;;;46.17;;
35550;SDS011;21655;46.056;13.616;2022-10-16T03:14:51;79.20;;;44.83;;
35550;SDS011;21655;46.056;13.616;2022-10-16T03:17:17;87.95;;;46.15;;
35550;SDS011;21655;46.056;13.616;2022-10-16T03:19:43;83.22;;;45.15;;
35550;SDS011;21655;46.056;13.616;2022-10-16T03:22:08;78.65;;;45.90;;
35550;SDS011;21655;46.056;13.616;2022-10-16T03:24:34;84.20;;;46.28;;
35550;SDS011;21655;46.056;13.616;2022-10-16T03:26:59;85.97;;;46.35;;
35550;SDS011;21655;46.056;13.616;2022-10-16T03:29:25;83.05;;;44.88;;
35550;SDS011;21655;46.056;13.616;2022-10-16T03:31:51;82.82;;;45.67;;
35550;SDS011;21655;46.056;13.616;2022-10-16T03:34:16;80.30;;;47.42;;
35550;SDS011;21655;46.056;13.616;2022-10-16T03:36:42;82.53;;;45.35;;
35550;SDS011;21655;46.056;13.616;2022-10-16T03:39:07;82.10;;;46.78;;
35550;SDS011;21655;46.056;13.616;2022-10-16T03:41:33;85.22;;;46.40;;
35550;SDS011;21655;46.056;13.616;2022-10-16T03:43:58;80.78;;;45.40;;
35550;SDS011;21655;46.056;13.616;2022-10-16T03:46:23;82.35;;;45.30;;
35550;SDS011;21655;46.056;13.616;2022-10-16T03:48:49;81.38;;;46.72;;
35550;SDS011;21655;46.056;13.616;2022-10-16T03:51:14;88.25;;;46.78;;
35550;SDS011;21655;46.056;13.616;2022-10-16T03:53:40;79.82;;;45.20;;
35550;SDS011;21655;46.056;13.616;2022-10-16T03:56:05;77.43;;;44.28;;
35550;SDS011;21655;46.056;13.616;2022-10-16T03:58:31;78.05;;;44.33;;
35550;SDS011;21655;46.056;13.616;2022-10-16T04:00:56;77.95;;;44.70;;
35550;SDS011;21655;46.056;13.616;2022-10-16T04:03:22;78.53;;;44.60;;
35550;SDS011;21655;46.056;13.616;2022-10-16T04:05:48;89.30;;;47.30;;
35550;SDS011;21655;46.056;13.616;2022-10-16T04:08:14;94.05;;;49.22;;
35550;SDS011;21655;46.056;13.616;2022-10-16T04:10:41;96.13;;;49.00;;
35550;SDS011;21655;46.056;13.616;2022-10-16T04:13:08;89.00;;;46.28;;
35550;SDS011;21655;46.056;13.616;2022-10-16T04:15:33;95.35;;;47.90;;
35550;SDS011;21655;46.056;13.616;2022-10-16T04:17:58;85.50;;;46.10;;
35550;SDS011;21655;46.056;13.616;2022-10-16T04:20:24;86.82;;;47.53;;
35550;SDS011;21655;46.056;13.616;2022-10-16T04:22:49;79.97;;;45.08;;
35550;SDS011;21655;46.056;13.616;2022-10-16T04:25:15;78.53;;;44.08;;
35550;SDS011;21655;46.056;13.616;2022-10-16T04:27:40;86.10;;;46.50;;
35550;SDS011;21655;46.056;13.616;2022-10-16T04:30:06;82.20;;;44.88;;
35550;SDS011;21655;46.056;13.616;2022-10-16T04:32:32;87.97;;;45.35;;
35550;SDS011;21655;46.056;13.616;2022-10-16T04:34:57;81.50;;;45.95;;
35550;SDS011;21655;46.056;13.616;2022-10-16T04:37:23;82.65;;;45.97;;
35550;SDS011;21655;46.056;13.616;2022-10-16T04:39:52;85.57;;;46.05;;
35550;SDS011;21655;46.056;13.616;2022-10-16T04:42:19;87.45;;;46.60;;
35550;SDS011;21655;46.056;13.616;2022-10-16T04:44:45;79.63;;;45.17;;
35550;SDS011;21655;46.056;13.616;2022-10-16T04:47:10;76.57;;;44.28;;
35550;SDS011;21655;46.056;13.616;2022-10-16T04:49:35;98.20;;;46.45;;
35550;SDS011;21655;46.056;13.616;2022-10-16T04:52:01;76.45;;;45.00;;
35550;SDS011;21655;46.056;13.616;2022-10-16T04:54:26;81.95;;;45.33;;
35550;SDS011;21655;46.056;13.616;2022-10-16T04:56:52;78.05;;;45.70;;
35550;SDS011;21655;46.056;13.616;2022-10-16T04:59:18;81.68;;;45.22;;
35550;SDS011;21655;46.056;13.616;2022-10-16T05:01:44;86.30;;;44.00;;
35550;SDS011;21655;46.056;13.616;2022-10-16T05:04:10;82.32;;;46.00;;
35550;SDS011;21655;46.056;13.616;2022-10-16T05:06:36;80.75;;;44.67;;
35550;SDS011;21655;46.056;13.616;2022-10-16T05:09:03;84.80;;;45.55;;
35550;SDS011;21655;46.056;13.616;2022-10-16T05:11:29;90.72;;;44.92;;
35550;SDS011;21655;46.056;13.616;2022-10-16T05:13:55;83.10;;;45.15;;
35550;SDS011;21655;46.056;13.616;2022-10-16T05:16:20;84.82;;;45.95;;
35550;SDS011;21655;46.056;13.616;2022-10-16T05:18:46;89.28;;;47.50;;
35550;SDS011;21655;46.056;13.616;2022-10-16T05:21:11;93.55;;;50.30;;
35550;SDS011;21655;46.056;13.616;2022-10-16T05:23:36;85.28;;;47.60;;
35550;SDS011;21655;46.056;13.616;2022-10-16T05:26:02;90.78;;;47.88;;
35550;SDS011;21655;46.056;13.616;2022-10-16T05:28:28;96.50;;;50.20;;
35550;SDS011;21655;46.056;13.616;2022-10-16T05:30:55;88.03;;;48.38;;
35550;SDS011;21655;46.056;13.616;2022-10-16T05:33:21;85.32;;;47.38;;
35550;SDS011;21655;46.056;13.616;2022-10-16T05:35:47;91.28;;;48.97;;
35550;SDS011;21655;46.056;13.616;2022-10-16T05:38:13;93.60;;;49.53;;
35550;SDS011;21655;46.056;13.616;2022-10-16T05:40:38;86.93;;;47.90;;
35550;SDS011;21655;46.056;13.616;2022-10-16T05:43:04;90.22;;;47.90;;
35550;SDS011;21655;46.056;13.616;2022-10-16T05:45:29;91.20;;;48.08;;
35550;SDS011;21655;46.056;13.616;2022-10-16T05:47:55;86.00;;;46.83;;
35550;SDS011;21655;46.056;13.616;2022-10-16T05:50:20;85.65;;;45.88;;
35550;SDS011;21655;46.056;13.616;2022-10-16T05:52:46;82.68;;;46.00;;
35550;SDS011;21655;46.056;13.616;2022-10-16T05:55:11;89.45;;;47.17;;
35550;SDS011;21655;46.056;13.616;2022-10-16T05:57:37;92.93;;;48.63;;
35550;SDS011;21655;46.056;13.616;2022-10-16T06:00:03;84.68;;;46.80;;
35550;SDS011;21655;46.056;13.616;2022-10-16T06:02:28;85.63;;;46.55;;
35550;SDS011;21655;46.056;13.616;2022-10-16T06:04:54;72.00;;;43.25;;
35550;SDS011;21655;46.056;13.616;2022-10-16T06:07:20;77.35;;;43.30;;
35550;SDS011;21655;46.056;13.616;2022-10-16T06:09:49;76.30;;;42.03;;
35550;SDS011;21655;46.056;13.616;2022-10-16T06:12:15;77.03;;;43.55;;
35550;SDS011;21655;46.056;13.616;2022-10-16T06:14:41;79.75;;;44.50;;
35550;SDS011;21655;46.056;13.616;2022-10-16T06:17:06;80.70;;;45.75;;
35550;SDS011;21655;46.056;13.616;2022-10-16T06:19:31;75.30;;;43.42;;
35550;SDS011;21655;46.056;13.616;2022-10-16T06:21:57;79.65;;;44.83;;
35550;SDS011;21655;46.056;13.616;2022-10-16T06:24:23;82.80;;;44.50;;
35550;SDS011;21655;46.056;13.616;2022-10-16T06:26:49;78.55;;;43.65;;
35550;SDS011;21655;46.056;13.616;2022-10-16T06:32:36;71.20;;;41.83;;
35550;SDS011;21655;46.056;13.616;2022-10-16T06:35:01;70.40;;;42.70;;
35550;SDS011;21655;46.056;13.616;2022-10-16T06:37:27;75.30;;;41.58;;
35550;SDS011;21655;46.056;13.616;2022-10-16T06:39:52;66.40;;;41.25;;
35550;SDS011;21655;46.056;13.616;2022-10-16T06:42:18;71.68;;;42.25;;
35550;SDS011;21655;46.056;13.616;2022-10-16T06:44:44;71.47;;;41.97;;
35550;SDS011;21655;46.056;13.616;2022-10-16T06:47:10;65.10;;;41.25;;
35550;SDS011;21655;46.056;13.616;2022-10-16T06:49:35;64.88;;;41.17;;
35550;SDS011;21655;46.056;13.616;2022-10-16T06:52:00;68.32;;;41.00;;
35550;SDS011;21655;46.056;13.616;2022-10-16T06:54:26;64.70;;;39.58;;
35550;SDS011;21655;46.056;13.616;2022-10-16T06:56:52;62.58;;;40.35;;
35550;SDS011;21655;46.056;13.616;2022-10-16T06:59:19;64.65;;;38.28;;
35550;SDS011;21655;46.056;13.616;2022-10-16T07:01:45;65.15;;;37.90;;
35550;SDS011;21655;46.056;13.616;2022-10-16T07:04:10;63.78;;;37.60;;
35550;SDS011;21655;46.056;13.616;2022-10-16T07:06:36;54.85;;;35.33;;
35550;SDS011;21655;46.056;13.616;2022-10-16T07:09:03;59.22;;;36.75;;
35550;SDS011;21655;46.056;13.616;2022-10-16T07:11:36;63.42;;;38.47;;
35550;SDS011;21655;46.056;13.616;2022-10-16T07:14:02;60.35;;;36.60;;
35550;SDS011;21655;46.056;13.616;2022-10-16T07:16:29;55.30;;;36.10;;
35550;SDS011;21655;46.056;13.616;2022-10-16T07:18:57;59.55;;;37.70;;
35550;SDS011;21655;46.056;13.616;2022-10-16T07:21:24;52.58;;;34.15;;
35550;SDS011;21655;46.056;13.616;2022-10-16T07:23:57;51.45;;;35.00;;
35550;SDS011;21655;46.056;13.616;2022-10-16T07:26:26;52.17;;;33.50;;
35550;SDS011;21655;46.056;13.616;2022-10-16T07:28:53;50.72;;;34.00;;
35550;SDS011;21655;46.056;13.616;2022-10-16T07:31:19;49.80;;;33.92;;
35550;SDS011;21655;46.056;13.616;2022-10-16T07:33:45;53.88;;;34.28;;
35550;SDS011;21655;46.056;13.616;2022-10-16T07:36:13;60.50;;;35.35;;
35550;SDS011;21655;46.056;13.616;2022-10-16T07:38:39;54.00;;;36.55;;
35550;SDS011;21655;46.056;13.616;2022-10-16T07:41:07;57.35;;;36.25;;
35550;SDS011;21655;46.056;13.616;2022-10-16T07:43:35;58.55;;;36.85;;
35550;SDS011;21655;46.056;13.616;2022-10-16T07:46:01;57.83;;;35.70;;
35550;SDS011;21655;46.056;13.616;2022-10-16T07:48:27;69.90;;;36.97;;
35550;SDS011;21655;46.056;13.616;2022-10-16T07:51:00;72.85;;;45.47;;
35550;SDS011;21655;46.056;13.616;2022-10-16T07:53:28;64.15;;;39.40;;
35550;SDS011;21655;46.056;13.616;2022-10-16T07:56:00;60.80;;;38.20;;
35550;SDS011;21655;46.056;13.616;2022-10-16T07:58:29;59.63;;;38.58;;
35550;SDS011;21655;46.056;13.616;2022-10-16T08:00:55;63.97;;;38.10;;
35550;SDS011;21655;46.056;13.616;2022-10-16T08:03:22;61.30;;;38.60;;
35550;SDS011;21655;46.056;13.616;2022-10-16T08:05:48;63.75;;;40.05;;
35550;SDS011;21655;46.056;13.616;2022-10-16T08:08:13;61.65;;;38.05;;
35550;SDS011;21655;46.056;13.616;2022-10-16T08:10:40;58.00;;;36.65;;
35550;SDS011;21655;46.056;13.616;2022-10-16T08:13:06;59.58;;;37.33;;
35550;SDS011;21655;46.056;13.616;2022-10-16T08:15:32;64.55;;;37.38;;
35550;SDS011;21655;46.056;13.616;2022-10-16T08:17:58;56.22;;;36.65;;
35550;SDS011;21655;46.056;13.616;2022-10-16T08:20:25;60.90;;;36.42;;
35550;SDS011;21655;46.056;13.616;2022-10-16T08:22:51;66.00;;;37.40;;
35550;SDS011;21655;46.056;13.616;2022-10-16T08:25:16;57.00;;;35.55;;
35550;SDS011;21655;46.056;13.616;2022-10-16T08:27:42;60.03;;;35.40;;
35550;SDS011;21655;46.056;13.616;2022-10-16T08:30:08;55.53;;;36.53;;
35550;SDS011;21655;46.056;13.616;2022-10-16T08:32:34;54.10;;;34.42;;
35550;SDS011;21655;46.056;13.616;2022-10-16T08:34:59;61.35;;;35.78;;
35550;SDS011;21655;46.056;13.616;2022-10-16T08:37:24;58.20;;;35.47;;
35550;SDS011;21655;46.056;13.616;2022-10-16T08:39:54;57.53;;;34.80;;
35550;SDS011;21655;46.056;13.616;2022-10-16T08:42:35;53.53;;;35.28;;
35550;SDS011;21655;46.056;13.616;2022-10-16T08:50:29;51.15;;;33.22;;
35550;SDS011;21655;46.056;13.616;2022-10-16T08:52:56;49.97;;;32.47;;
35550;SDS011;21655;46.056;13.616;2022-10-16T08:57:48;49.55;;;31.98;;
35550;SDS011;21655;46.056;13.616;2022-10-16T09:00:14;46.33;;;30.40;;
35550;SDS011;21655;46.056;13.616;2022-10-16T09:02:44;46.03;;;29.60;;
35550;SDS011;21655;46.056;13.616;2022-10-16T09:15:36;33.95;;;25.63;;
35550;SDS011;21655;46.056;13.616;2022-10-16T09:18:12;36.42;;;25.17;;
35550;SDS011;21655;46.056;13.616;2022-10-16T09:21:01;37.40;;;26.05;;
35550;SDS011;21655;46.056;13.616;2022-10-16T09:23:35;38.33;;;26.58;;
35550;SDS011;21655;46.056;13.616;2022-10-16T09:26:02;39.83;;;25.58;;
35550;SDS011;21655;46.056;13.616;2022-10-16T09:28:28;33.42;;;24.95;;
35550;SDS011;21655;46.056;13.616;2022-10-16T09:30:54;39.75;;;24.67;;
35550;SDS011;21655;46.056;13.616;2022-10-16T09:33:21;44.28;;;25.63;;
35550;SDS011;21655;46.056;13.616;2022-10-16T09:35:50;40.58;;;24.48;;
35550;SDS011;21655;46.056;13.616;2022-10-16T09:38:23;33.55;;;25.85;;
35550;SDS011;21655;46.056;13.616;2022-10-16T09:40:57;35.20;;;25.63;;
35550;SDS011;21655;46.056;13.616;2022-10-16T09:43:25;30.50;;;23.45;;
35550;SDS011;21655;46.056;13.616;2022-10-16T09:46:06;32.20;;;24.83;;
35550;SDS011;21655;46.056;13.616;2022-10-16T09:48:36;32.92;;;25.75;;
35550;SDS011;21655;46.056;13.616;2022-10-16T09:51:04;38.20;;;24.77;;
35550;SDS011;21655;46.056;13.616;2022-10-16T09:53:42;33.88;;;25.00;;
35550;SDS011;21655;46.056;13.616;2022-10-16T09:56:11;33.80;;;24.77;;
35550;SDS011;21655;46.056;13.616;2022-10-16T09:58:55;31.77;;;24.25;;
35550;SDS011;21655;46.056;13.616;2022-10-16T10:01:25;32.53;;;23.20;;
35550;SDS011;21655;46.056;13.616;2022-10-16T10:03:55;31.33;;;23.98;;
35550;SDS011;21655;46.056;13.616;2022-10-16T10:06:30;34.70;;;24.55;;
35550;SDS011;21655;46.056;13.616;2022-10-16T10:19:37;33.30;;;22.73;;
35550;SDS011;21655;46.056;13.616;2022-10-16T10:22:24;32.42;;;24.27;;
35550;SDS011;21655;46.056;13.616;2022-10-16T10:46:48;36.28;;;28.08;;
35550;SDS011;21655;46.056;13.616;2022-10-16T10:52:19;41.90;;;30.40;;
35550;SDS011;21655;46.056;13.616;2022-10-16T11:06:08;43.20;;;29.58;;
35550;SDS011;21655;46.056;13.616;2022-10-16T11:14:14;42.08;;;29.05;;
35550;SDS011;21655;46.056;13.616;2022-10-16T11:22:10;44.15;;;30.27;;
35550;SDS011;21655;46.056;13.616;2022-10-16T11:24:44;41.38;;;29.77;;
35550;SDS011;21655;46.056;13.616;2022-10-16T11:27:17;46.38;;;33.33;;
35550;SDS011;21655;46.056;13.616;2022-10-16T11:29:49;39.20;;;30.60;;
35550;SDS011;21655;46.056;13.616;2022-10-16T11:32:32;40.20;;;31.42;;
35550;SDS011;21655;46.056;13.616;2022-10-16T11:35:53;48.03;;;34.72;;
35550;SDS011;21655;46.056;13.616;2022-10-16T11:38:07;54.85;;;37.78;;
35550;SDS011;21655;46.056;13.616;2022-10-16T11:40:55;58.72;;;38.35;;
35550;SDS011;21655;46.056;13.616;2022-10-16T11:43:41;59.47;;;38.75;;
35550;SDS011;21655;46.056;13.616;2022-10-16T11:46:13;56.45;;;38.40;;
35550;SDS011;21655;46.056;13.616;2022-10-16T11:48:50;56.35;;;39.20;;
35550;SDS011;21655;46.056;13.616;2022-10-16T11:56:36;62.97;;;41.38;;
35550;SDS011;21655;46.056;13.616;2022-10-16T11:59:18;64.47;;;40.85;;
35550;SDS011;21655;46.056;13.616;2022-10-16T12:04:41;68.22;;;41.25;;
35550;SDS011;21655;46.056;13.616;2022-10-16T12:07:14;64.65;;;40.92;;
35550;SDS011;21655;46.056;13.616;2022-10-16T12:09:49;65.22;;;42.25;;
35550;SDS011;21655;46.056;13.616;2022-10-16T12:12:27;71.78;;;44.53;;
35550;SDS011;21655;46.056;13.616;2022-10-16T12:17:35;73.60;;;41.47;;
35550;SDS011;21655;46.056;13.616;2022-10-16T12:20:18;70.50;;;42.60;;
35550;SDS011;21655;46.056;13.616;2022-10-16T12:22:54;63.47;;;40.95;;
35550;SDS011;21655;46.056;13.616;2022-10-16T12:25:28;62.08;;;40.78;;
35550;SDS011;21655;46.056;13.616;2022-10-16T12:28:00;71.05;;;41.38;;
35550;SDS011;21655;46.056;13.616;2022-10-16T12:30:27;72.40;;;40.60;;
35550;SDS011;21655;46.056;13.616;2022-10-16T12:32:58;70.40;;;41.55;;
35550;SDS011;21655;46.056;13.616;2022-10-16T12:35:28;69.63;;;42.28;;
35550;SDS011;21655;46.056;13.616;2022-10-16T12:40:58;69.45;;;41.13;;
35550;SDS011;21655;46.056;13.616;2022-10-16T12:43:35;73.35;;;44.08;;
35550;SDS011;21655;46.056;13.616;2022-10-16T12:48:34;68.68;;;42.42;;
35550;SDS011;21655;46.056;13.616;2022-10-16T12:51:11;71.35;;;42.88;;
35550;SDS011;21655;46.056;13.616;2022-10-16T12:53:37;71.43;;;43.88;;
35550;SDS011;21655;46.056;13.616;2022-10-16T12:56:10;75.30;;;44.65;;
35550;SDS011;21655;46.056;13.616;2022-10-16T13:10:26;68.55;;;41.20;;
35550;SDS011;21655;46.056;13.616;2022-10-16T13:26:11;65.57;;;40.72;;
35550;SDS011;21655;46.056;13.616;2022-10-16T13:28:46;68.88;;;40.42;;
35550;SDS011;21655;46.056;13.616;2022-10-16T13:31:17;60.40;;;37.90;;
35550;SDS011;21655;46.056;13.616;2022-10-16T13:33:46;60.42;;;38.30;;
35550;SDS011;21655;46.056;13.616;2022-10-16T13:36:19;65.30;;;39.22;;
35550;SDS011;21655;46.056;13.616;2022-10-16T13:38:47;64.57;;;40.20;;
35550;SDS011;21655;46.056;13.616;2022-10-16T13:41:16;59.35;;;39.42;;
35550;SDS011;21655;46.056;13.616;2022-10-16T13:43:44;58.97;;;35.50;;
35550;SDS011;21655;46.056;13.616;2022-10-16T13:46:14;64.50;;;37.00;;
35550;SDS011;21655;46.056;13.616;2022-10-16T13:48:57;56.72;;;36.03;;
35550;SDS011;21655;46.056;13.616;2022-10-16T13:51:30;59.90;;;37.17;;
35550;SDS011;21655;46.056;13.616;2022-10-16T13:53:57;57.13;;;35.88;;
35550;SDS011;21655;46.056;13.616;2022-10-16T13:56:27;52.22;;;35.33;;
35550;SDS011;21655;46.056;13.616;2022-10-16T13:58:59;55.30;;;35.92;;
35550;SDS011;21655;46.056;13.616;2022-10-16T14:01:25;60.22;;;35.58;;
35550;SDS011;21655;46.056;13.616;2022-10-16T14:03:59;57.40;;;36.13;;
35550;SDS011;21655;46.056;13.616;2022-10-16T14:06:27;64.20;;;37.55;;
35550;SDS011;21655;46.056;13.616;2022-10-16T14:09:16;59.20;;;36.30;;
35550;SDS011;21655;46.056;13.616;2022-10-16T14:11:44;56.88;;;35.08;;
35550;SDS011;21655;46.056;13.616;2022-10-16T14:14:13;55.72;;;35.42;;
35550;SDS011;21655;46.056;13.616;2022-10-16T14:16:40;61.13;;;37.67;;
35550;SDS011;21655;46.056;13.616;2022-10-16T14:19:13;59.65;;;36.40;;
35550;SDS011;21655;46.056;13.616;2022-10-16T14:21:43;58.13;;;36.30;;
35550;SDS011;21655;46.056;13.616;2022-10-16T14:24:12;60.17;;;35.65;;
35550;SDS011;21655;46.056;13.616;2022-10-16T14:26:43;59.88;;;36.00;;
35550;SDS011;21655;46.056;13.616;2022-10-16T14:29:18;56.42;;;36.00;;
35550;SDS011;21655;46.056;13.616;2022-10-16T14:34:23;57.50;;;36.25;;
35550;SDS011;21655;46.056;13.616;2022-10-16T14:36:49;60.67;;;35.47;;
35550;SDS011;21655;46.056;13.616;2022-10-16T14:39:19;60.33;;;36.83;;
35550;SDS011;21655;46.056;13.616;2022-10-16T14:41:48;55.03;;;35.25;;
35550;SDS011;21655;46.056;13.616;2022-10-16T14:44:15;58.20;;;35.22;;
35550;SDS011;21655;46.056;13.616;2022-10-16T14:46:43;58.05;;;35.33;;
35550;SDS011;21655;46.056;13.616;2022-10-16T14:51:35;54.17;;;33.65;;
35550;SDS011;21655;46.056;13.616;2022-10-16T14:54:09;55.97;;;35.05;;
35550;SDS011;21655;46.056;13.616;2022-10-16T14:56:54;62.08;;;34.92;;
35550;SDS011;21655;46.056;13.616;2022-10-16T14:59:27;59.40;;;35.28;;
35550;SDS011;21655;46.056;13.616;2022-10-16T15:01:55;56.60;;;32.47;;
35550;SDS011;21655;46.056;13.616;2022-10-16T15:04:21;45.58;;;28.35;;
35550;SDS011;21655;46.056;13.616;2022-10-16T15:06:47;52.45;;;28.02;;
35550;SDS011;21655;46.056;13.616;2022-10-16T15:09:12;41.38;;;27.90;;
35550;SDS011;21655;46.056;13.616;2022-10-16T15:11:38;42.13;;;27.70;;
35550;SDS011;21655;46.056;13.616;2022-10-16T15:14:04;41.80;;;28.30;;
35550;SDS011;21655;46.056;13.616;2022-10-16T15:16:30;41.42;;;28.13;;
35550;SDS011;21655;46.056;13.616;2022-10-16T15:18:56;42.63;;;26.40;;
35550;SDS011;21655;46.056;13.616;2022-10-16T15:21:29;42.85;;;26.55;;
35550;SDS011;21655;46.056;13.616;2022-10-16T15:23:56;52.05;;;28.38;;
35550;SDS011;21655;46.056;13.616;2022-10-16T15:26:26;41.30;;;28.25;;
35550;SDS011;21655;46.056;13.616;2022-10-16T15:28:53;48.10;;;26.60;;
35550;SDS011;21655;46.056;13.616;2022-10-16T15:31:19;50.30;;;30.65;;
35550;SDS011;21655;46.056;13.616;2022-10-16T15:33:46;43.47;;;29.65;;
35550;SDS011;21655;46.056;13.616;2022-10-16T15:36:24;43.03;;;28.55;;
35550;SDS011;21655;46.056;13.616;2022-10-16T15:38:50;47.65;;;30.00;;
35550;SDS011;21655;46.056;13.616;2022-10-16T15:41:16;45.30;;;30.45;;
35550;SDS011;21655;46.056;13.616;2022-10-16T15:43:41;49.78;;;29.20;;
35550;SDS011;21655;46.056;13.616;2022-10-16T15:46:09;52.55;;;31.38;;
35550;SDS011;21655;46.056;13.616;2022-10-16T15:48:42;54.75;;;30.92;;
35550;SDS011;21655;46.056;13.616;2022-10-16T15:51:08;48.38;;;31.92;;
35550;SDS011;21655;46.056;13.616;2022-10-16T15:53:34;53.67;;;33.15;;
35550;SDS011;21655;46.056;13.616;2022-10-16T15:56:06;56.95;;;33.30;;
35550;SDS011;21655;46.056;13.616;2022-10-16T15:58:33;58.38;;;32.63;;
35550;SDS011;21655;46.056;13.616;2022-10-16T16:00:59;54.83;;;32.33;;
35550;SDS011;21655;46.056;13.616;2022-10-16T16:03:26;60.03;;;34.35;;
35550;SDS011;21655;46.056;13.616;2022-10-16T16:05:53;55.42;;;34.10;;
35550;SDS011;21655;46.056;13.616;2022-10-16T16:08:18;52.33;;;35.15;;
35550;SDS011;21655;46.056;13.616;2022-10-16T16:10:44;57.90;;;36.50;;
35550;SDS011;21655;46.056;13.616;2022-10-16T16:13:09;56.83;;;35.67;;
35550;SDS011;21655;46.056;13.616;2022-10-16T16:15:37;61.78;;;36.22;;
35550;SDS011;21655;46.056;13.616;2022-10-16T16:18:05;58.80;;;34.58;;
35550;SDS011;21655;46.056;13.616;2022-10-16T16:20:30;52.95;;;34.92;;
35550;SDS011;21655;46.056;13.616;2022-10-16T16:22:56;56.17;;;35.15;;
35550;SDS011;21655;46.056;13.616;2022-10-16T16:25:21;59.67;;;35.88;;
35550;SDS011;21655;46.056;13.616;2022-10-16T16:27:47;67.95;;;37.03;;
35550;SDS011;21655;46.056;13.616;2022-10-16T16:30:12;60.00;;;37.53;;
35550;SDS011;21655;46.056;13.616;2022-10-16T16:32:38;62.28;;;37.75;;
35550;SDS011;21655;46.056;13.616;2022-10-16T16:35:03;60.28;;;37.38;;
35550;SDS011;21655;46.056;13.616;2022-10-16T16:37:29;62.35;;;37.88;;
35550;SDS011;21655;46.056;13.616;2022-10-16T16:39:55;62.45;;;37.47;;